createdAt,value
2023-05-21T00:02:13.067Z,3.13
2023-05-21T00:04:41.496Z,2.97
2023-05-21T00:07:08.777Z,3.07
2023-05-21T00:09:36.891Z,3.20
2023-05-21T00:12:04.549Z,3.54
2023-05-21T00:14:33.624Z,3.34
2023-05-21T00:17:00.806Z,2.72
2023-05-21T00:19:28.082Z,2.55
2023-05-21T00:21:55.251Z,2.13
2023-05-21T00:24:22.342Z,2.41
2023-05-21T00:26:49.639Z,1.87
2023-05-21T00:29:16.810Z,2.29
2023-05-21T00:31:45.591Z,2.43
2023-05-21T00:34:13.185Z,2.75
2023-05-21T00:36:40.376Z,2.67
2023-05-21T00:39:07.620Z,2.44
2023-05-21T00:41:34.850Z,2.64
2023-05-21T00:44:02.050Z,2.38
2023-05-21T00:46:29.748Z,2.72
2023-05-21T00:49:00.460Z,2.41
2023-05-21T00:51:28.101Z,2.97
2023-05-21T00:53:55.536Z,2.89
2023-05-21T00:56:24.639Z,2.88
2023-05-21T00:58:52.531Z,2.51
2023-05-21T01:01:19.806Z,2.85
2023-05-21T01:03:47.764Z,2.61
2023-05-21T01:06:16.427Z,2.65
2023-05-21T01:08:43.930Z,2.65
2023-05-21T01:11:11.831Z,2.72
2023-05-21T01:13:41.429Z,2.54
2023-05-21T01:16:10.469Z,3.00
2023-05-21T01:18:38.523Z,2.62
2023-05-21T01:21:06.671Z,2.78
2023-05-21T01:23:35.529Z,2.75
2023-05-21T01:26:02.792Z,2.67
2023-05-21T01:28:30.146Z,2.88
2023-05-21T01:31:14.019Z,3.00
2023-05-21T01:33:49.084Z,2.72
2023-05-21T01:36:22.301Z,2.82
2023-05-21T01:39:01.575Z,2.83
2023-05-21T01:41:32.806Z,2.74
2023-05-21T01:44:02.329Z,2.94
2023-05-21T01:46:33.608Z,2.84
2023-05-21T01:49:02.334Z,3.15
2023-05-21T01:51:30.266Z,3.03
2023-05-21T01:53:58.848Z,3.16
2023-05-21T01:56:26.038Z,2.84
2023-05-21T01:58:53.352Z,3.02
2023-05-21T02:01:20.494Z,2.86
2023-05-21T02:03:47.757Z,2.81
2023-05-21T02:06:15.032Z,2.76
2023-05-21T02:08:42.138Z,2.56
2023-05-21T02:11:10.810Z,2.93
2023-05-21T02:13:37.988Z,2.74
2023-05-21T02:16:05.760Z,2.85
2023-05-21T02:18:32.891Z,2.81
2023-05-21T02:21:00.157Z,3.09
2023-05-21T02:23:27.235Z,2.93
2023-05-21T02:25:54.434Z,2.44
2023-05-21T02:28:23.155Z,2.71
2023-05-21T02:30:50.318Z,2.34
2023-05-21T02:33:17.491Z,2.23
2023-05-21T02:35:44.900Z,2.58
2023-05-21T02:38:12.080Z,2.63
2023-05-21T02:40:39.343Z,2.40
2023-05-21T02:43:06.663Z,2.57
2023-05-21T02:45:35.508Z,2.38
2023-05-21T02:48:03.125Z,2.49
2023-05-21T02:50:30.296Z,2.39
2023-05-21T02:52:57.441Z,2.44
2023-05-21T02:55:24.640Z,2.51
2023-05-21T02:57:51.949Z,2.47
2023-05-21T03:00:19.199Z,2.41
2023-05-21T03:02:47.864Z,2.43
2023-05-21T03:05:15.126Z,2.71
2023-05-21T03:07:42.392Z,2.78
2023-05-21T03:10:10.720Z,2.40
2023-05-21T03:12:38.086Z,2.87
2023-05-21T03:15:06.352Z,2.42
2023-05-21T03:17:33.746Z,2.66
2023-05-21T03:20:02.360Z,2.72
2023-05-21T03:22:29.685Z,2.67
2023-05-21T03:24:56.867Z,2.37
2023-05-21T03:27:24.209Z,2.24
2023-05-21T03:29:51.346Z,2.35
2023-05-21T03:32:18.732Z,2.51
2023-05-21T03:34:45.907Z,2.47
2023-05-21T03:37:14.677Z,2.49
2023-05-21T03:39:41.886Z,2.51
2023-05-21T03:42:09.153Z,2.78
2023-05-21T03:44:36.344Z,2.48
2023-05-21T03:47:03.690Z,2.48
2023-05-21T03:49:30.853Z,2.77
2023-05-21T03:51:58.019Z,2.72
2023-05-21T03:54:26.556Z,2.43
2023-05-21T03:56:53.756Z,2.52
2023-05-21T03:59:20.828Z,2.42
2023-05-21T04:01:48.031Z,2.46
2023-05-21T04:04:15.430Z,2.74
2023-05-21T04:06:42.869Z,2.41
2023-05-21T04:09:10.033Z,2.54
2023-05-21T04:11:38.610Z,2.47
2023-05-21T04:14:05.990Z,2.40
2023-05-21T04:16:33.235Z,2.42
2023-05-21T04:19:00.481Z,2.43
2023-05-21T04:21:27.711Z,2.42
2023-05-21T04:23:55.007Z,2.18
2023-05-21T04:26:22.188Z,2.56
2023-05-21T04:28:50.725Z,2.27
2023-05-21T04:31:18.023Z,2.20
2023-05-21T04:33:45.206Z,2.17
2023-05-21T04:36:12.570Z,2.38
2023-05-21T04:38:39.771Z,2.46
2023-05-21T04:41:07.034Z,2.33
2023-05-21T04:43:34.174Z,2.47
2023-05-21T04:46:02.763Z,2.57
2023-05-21T04:48:30.088Z,2.36
2023-05-21T04:50:57.319Z,2.66
2023-05-21T04:53:24.587Z,2.41
2023-05-21T04:55:51.836Z,2.41
2023-05-21T04:58:18.998Z,2.74
2023-05-21T05:00:46.526Z,2.99
2023-05-21T05:03:15.572Z,2.98
2023-05-21T05:05:43.027Z,2.76
2023-05-21T05:08:10.287Z,2.69
2023-05-21T05:10:37.465Z,2.65
2023-05-21T05:13:04.708Z,2.82
2023-05-21T05:15:31.987Z,3.09
2023-05-21T05:17:59.413Z,2.79
2023-05-21T05:20:28.114Z,3.14
2023-05-21T05:22:55.392Z,2.92
2023-05-21T05:25:22.676Z,2.99
2023-05-21T05:27:49.880Z,3.22
2023-05-21T05:30:17.398Z,3.54
2023-05-21T05:32:44.571Z,3.30
2023-05-21T05:35:11.952Z,3.65
2023-05-21T05:37:40.567Z,3.22
2023-05-21T05:40:08.798Z,3.43
2023-05-21T05:42:35.925Z,3.07
2023-05-21T05:45:03.682Z,3.29
2023-05-21T05:47:30.884Z,3.42
2023-05-21T05:49:58.207Z,3.88
2023-05-21T05:52:25.393Z,4.06
2023-05-21T05:54:54.039Z,3.75
2023-05-21T05:57:21.232Z,3.64
2023-05-21T05:59:48.437Z,3.91
2023-05-21T06:02:15.805Z,4.11
2023-05-21T06:04:43.527Z,4.00
2023-05-21T06:07:10.696Z,3.77
2023-05-21T06:09:37.885Z,3.67
2023-05-21T06:12:08.659Z,3.77
2023-05-21T06:14:36.870Z,3.97
2023-05-21T06:17:04.247Z,3.92
2023-05-21T06:19:31.534Z,3.94
2023-05-21T06:21:58.945Z,3.95
2023-05-21T06:24:26.427Z,3.86
2023-05-21T06:26:53.598Z,3.75
2023-05-21T06:29:22.297Z,3.93
2023-05-21T06:31:49.438Z,4.16
2023-05-21T06:34:16.621Z,3.85
2023-05-21T06:36:43.784Z,4.45
2023-05-21T06:39:11.041Z,4.35
2023-05-21T06:41:38.218Z,3.66
2023-05-21T06:44:05.817Z,4.11
2023-05-21T06:46:34.606Z,4.02
2023-05-21T06:49:01.931Z,3.98
2023-05-21T06:51:29.186Z,3.69
2023-05-21T06:53:56.490Z,3.86
2023-05-21T06:56:23.659Z,4.35
2023-05-21T06:58:50.992Z,4.00
2023-05-21T07:01:18.452Z,4.11
2023-05-21T07:03:47.356Z,3.91
2023-05-21T07:06:14.644Z,3.98
2023-05-21T07:08:41.850Z,3.70
2023-05-21T07:11:09.104Z,3.94
2023-05-21T07:13:36.842Z,3.49
2023-05-21T07:16:04.274Z,3.40
2023-05-21T07:18:31.841Z,3.46
2023-05-21T07:21:00.530Z,3.10
2023-05-21T07:23:27.695Z,3.14
2023-05-21T07:25:54.892Z,3.34
2023-05-21T07:28:22.011Z,3.10
2023-05-21T07:30:49.199Z,3.44
2023-05-21T07:33:16.314Z,3.33
2023-05-21T07:35:43.516Z,3.67
2023-05-21T07:38:12.135Z,3.49
2023-05-21T07:40:39.258Z,3.65
2023-05-21T07:43:06.413Z,3.65
2023-05-21T07:45:33.606Z,3.62
2023-05-21T07:48:00.805Z,3.71
2023-05-21T07:50:28.153Z,3.27
2023-05-21T07:52:55.396Z,3.37
2023-05-21T07:55:24.110Z,3.61
2023-05-21T07:57:51.291Z,3.28
2023-05-21T08:00:18.811Z,3.51
2023-05-21T08:02:46.100Z,3.46
2023-05-21T08:05:13.441Z,3.24
2023-05-21T08:07:40.839Z,3.72
2023-05-21T08:10:09.256Z,3.34
2023-05-21T08:12:37.892Z,3.54
2023-05-21T08:15:06.332Z,3.30
2023-05-21T08:17:33.600Z,3.37
2023-05-21T08:20:00.877Z,3.65
2023-05-21T08:22:28.080Z,3.22
2023-05-21T08:24:55.319Z,3.39
2023-05-21T08:27:22.594Z,3.35
2023-05-21T08:29:51.231Z,3.29
2023-05-21T08:32:18.662Z,3.43
2023-05-21T08:34:45.850Z,3.51
2023-05-21T08:37:13.003Z,3.27
2023-05-21T08:39:40.327Z,3.41
2023-05-21T08:42:25.635Z,3.86
2023-05-21T08:45:00.434Z,3.43
2023-05-21T08:47:35.063Z,2.92
2023-05-21T08:50:04.605Z,3.71
2023-05-21T08:52:32.093Z,3.19
2023-05-21T08:55:00.476Z,3.24
2023-05-21T08:57:30.768Z,3.19
2023-05-21T08:59:59.467Z,3.94
2023-05-21T09:02:27.154Z,3.92
2023-05-21T09:04:54.904Z,3.87
2023-05-21T09:07:22.815Z,3.46
2023-05-21T09:09:56.362Z,3.72
2023-05-21T09:12:24.439Z,3.97
2023-05-21T09:14:52.703Z,4.04
2023-05-21T09:17:21.356Z,3.55
2023-05-21T09:20:09.801Z,3.49
2023-05-21T09:22:37.427Z,3.27
2023-05-21T09:25:07.002Z,3.27
2023-05-21T09:27:34.385Z,3.43
2023-05-21T09:30:02.826Z,3.38
2023-05-21T09:32:31.544Z,3.08
2023-05-21T09:35:07.391Z,3.54
2023-05-21T09:37:38.424Z,3.36
2023-05-21T09:40:16.385Z,2.98
2023-05-21T09:42:46.786Z,3.20
2023-05-21T09:45:18.846Z,3.08
2023-05-21T09:47:49.831Z,3.93
2023-05-21T09:50:20.437Z,4.00
2023-05-21T09:52:48.703Z,3.71
2023-05-21T09:55:17.373Z,3.54
2023-05-21T09:57:48.137Z,3.77
2023-05-21T10:00:22.585Z,4.18
2023-05-21T10:03:02.010Z,3.75
2023-05-21T10:05:30.717Z,3.75
2023-05-21T10:08:01.983Z,3.17
2023-05-21T10:10:30.810Z,3.31
2023-05-21T10:13:01.088Z,3.67
2023-05-21T10:15:32.142Z,3.66
2023-05-21T10:18:03.673Z,4.05
2023-05-21T10:20:32.086Z,3.73
2023-05-21T10:23:00.170Z,4.04
2023-05-21T10:25:28.054Z,3.50
2023-05-21T10:27:57.264Z,3.83
2023-05-21T10:30:25.604Z,3.71
2023-05-21T10:32:56.286Z,2.93
2023-05-21T10:35:25.291Z,3.14
2023-05-21T10:37:54.461Z,3.26
2023-05-21T10:40:21.791Z,3.35
2023-05-21T10:43:19.385Z,3.01
2023-05-21T10:46:18.887Z,2.94
2023-05-21T10:49:05.768Z,3.11
2023-05-21T10:51:53.281Z,3.25
2023-05-21T10:54:53.607Z,3.09
2023-05-21T10:57:44.782Z,3.00
2023-05-21T11:00:15.948Z,3.11
2023-05-21T11:02:43.824Z,2.95
2023-05-21T11:05:11.091Z,3.36
2023-05-21T11:07:53.407Z,2.85
2023-05-21T11:10:38.601Z,3.57
2023-05-21T11:13:08.683Z,3.26
2023-05-21T11:16:13.683Z,3.09
2023-05-21T11:18:59.809Z,2.66
2023-05-21T11:21:31.076Z,3.02
2023-05-21T11:24:05.715Z,2.70
2023-05-21T11:27:01.524Z,2.89
2023-05-21T11:29:40.402Z,2.70
2023-05-21T11:32:09.449Z,2.67
2023-05-21T11:34:39.328Z,2.86
2023-05-21T11:37:26.507Z,2.91
2023-05-21T11:39:57.264Z,2.57
2023-05-21T11:42:35.333Z,2.45
2023-05-21T11:45:03.570Z,2.46
2023-05-21T11:47:32.264Z,2.56
2023-05-21T11:50:01.107Z,2.41
2023-05-21T11:52:29.871Z,2.50
2023-05-21T11:54:59.236Z,2.56
2023-05-21T11:57:29.460Z,2.39
2023-05-21T11:59:57.934Z,2.33
2023-05-21T12:02:27.486Z,2.35
2023-05-21T12:04:54.909Z,2.31
2023-05-21T12:07:22.549Z,2.32
2023-05-21T12:09:51.569Z,2.67
2023-05-21T12:12:23.187Z,2.91
2023-05-21T12:14:52.782Z,2.36
2023-05-21T12:17:21.823Z,2.56
2023-05-21T12:19:51.271Z,2.78
2023-05-21T12:22:18.406Z,2.33
2023-05-21T12:24:45.844Z,2.69
2023-05-21T12:27:14.126Z,2.58
2023-05-21T12:29:44.815Z,2.40
2023-05-21T12:32:13.895Z,2.96
2023-05-21T12:34:43.287Z,2.56
2023-05-21T12:37:12.687Z,2.54
2023-05-21T12:39:41.707Z,2.50
2023-05-21T12:42:09.759Z,2.46
2023-05-21T12:44:39.429Z,2.54
2023-05-21T12:47:08.511Z,2.61
2023-05-21T12:49:37.603Z,2.31
2023-05-21T12:52:08.289Z,2.53
2023-05-21T12:54:37.128Z,2.34
2023-05-21T12:57:08.818Z,2.36
2023-05-21T12:59:48.051Z,2.02
2023-05-21T13:02:20.300Z,2.56
2023-05-21T13:04:48.392Z,2.25
2023-05-21T13:07:16.167Z,2.30
2023-05-21T13:09:43.795Z,2.28
2023-05-21T13:12:12.889Z,2.12
2023-05-21T13:14:40.052Z,2.27
2023-05-21T13:17:07.517Z,2.34
2023-05-21T13:19:36.299Z,2.36
2023-05-21T13:22:03.789Z,2.26
2023-05-21T13:24:31.065Z,2.04
2023-05-21T13:26:58.289Z,2.06
2023-05-21T13:29:25.475Z,2.20
2023-05-21T13:31:52.751Z,1.71
2023-05-21T13:34:19.907Z,2.00
2023-05-21T13:36:48.527Z,1.93
2023-05-21T13:39:15.750Z,2.19
2023-05-21T13:41:43.451Z,1.69
2023-05-21T13:44:10.646Z,1.72
2023-05-21T13:46:37.947Z,1.83
2023-05-21T13:49:05.568Z,1.87
2023-05-21T13:51:39.230Z,1.84
2023-05-21T13:54:08.129Z,1.95
2023-05-21T13:56:35.386Z,1.85
2023-05-21T13:59:02.587Z,1.73
2023-05-21T14:01:29.867Z,1.84
2023-05-21T14:03:57.287Z,1.83
2023-05-21T14:06:24.507Z,1.53
2023-05-21T14:08:51.907Z,1.68
2023-05-21T14:11:21.286Z,1.86
2023-05-21T14:13:48.617Z,2.05
2023-05-21T14:16:15.985Z,1.91
2023-05-21T14:18:43.242Z,1.74
2023-05-21T14:21:10.489Z,1.92
2023-05-21T14:23:37.728Z,1.85
2023-05-21T14:26:05.390Z,2.11
2023-05-21T14:28:34.073Z,1.72
2023-05-21T14:31:01.481Z,1.89
2023-05-21T14:33:28.631Z,2.11
2023-05-21T14:35:55.858Z,1.92
2023-05-21T14:38:23.106Z,1.85
2023-05-21T14:40:50.389Z,1.74
2023-05-21T14:43:17.508Z,1.72
2023-05-21T14:45:46.373Z,1.74
2023-05-21T14:48:13.656Z,1.88
2023-05-21T14:50:41.214Z,1.80
2023-05-21T14:53:10.032Z,1.88
2023-05-21T14:55:38.746Z,1.63
2023-05-21T14:58:06.922Z,1.65
2023-05-21T15:00:35.539Z,1.74
2023-05-21T15:03:04.915Z,1.65
2023-05-21T15:05:32.648Z,1.84
2023-05-21T15:08:00.301Z,2.00
2023-05-21T15:10:28.579Z,1.93
2023-05-21T15:12:55.975Z,1.90
2023-05-21T15:15:23.364Z,1.75
2023-05-21T15:17:51.197Z,2.12
2023-05-21T15:20:19.980Z,1.99
2023-05-21T15:22:47.636Z,2.21
2023-05-21T15:25:14.927Z,2.51
2023-05-21T15:27:50.804Z,2.29
2023-05-21T15:30:18.124Z,2.18
2023-05-21T15:32:45.343Z,2.59
2023-05-21T15:35:12.572Z,2.19
2023-05-21T15:37:39.908Z,2.33
2023-05-21T15:40:08.663Z,2.33
2023-05-21T15:42:35.829Z,2.23
2023-05-21T15:45:05.452Z,2.28
2023-05-21T15:47:32.722Z,2.44
2023-05-21T15:49:59.950Z,2.52
2023-05-21T15:52:27.171Z,2.39
2023-05-21T15:54:54.881Z,2.33
2023-05-21T15:57:22.160Z,2.46
2023-05-21T15:59:49.423Z,2.39
2023-05-21T16:02:18.086Z,2.07
2023-05-21T16:04:45.349Z,2.34
2023-05-21T16:07:12.629Z,2.32
2023-05-21T16:09:39.720Z,1.96
2023-05-21T16:12:07.495Z,2.17
2023-05-21T16:14:34.670Z,2.35
2023-05-21T16:17:01.894Z,2.51
2023-05-21T16:19:30.673Z,2.17
2023-05-21T16:21:57.972Z,2.11
2023-05-21T16:24:25.046Z,2.27
2023-05-21T16:26:52.248Z,1.98
2023-05-21T16:29:19.381Z,2.20
2023-05-21T16:31:47.673Z,1.81
2023-05-21T16:34:14.805Z,1.83
2023-05-21T16:36:43.683Z,2.78
2023-05-21T16:39:10.868Z,2.24
2023-05-21T16:41:38.066Z,2.22
2023-05-21T16:44:05.322Z,2.13
2023-05-21T16:46:32.460Z,2.18
2023-05-21T16:48:59.930Z,2.09
2023-05-21T16:51:27.124Z,2.15
2023-05-21T16:53:55.705Z,2.01
2023-05-21T16:56:22.888Z,2.10
2023-05-21T16:58:50.085Z,2.16
2023-05-21T17:01:17.356Z,2.15
2023-05-21T17:03:44.846Z,2.16
2023-05-21T17:06:12.125Z,2.21
2023-05-21T17:08:39.334Z,2.19
2023-05-21T17:11:08.171Z,2.03
2023-05-21T17:13:35.417Z,2.07
2023-05-21T17:16:02.862Z,1.90
2023-05-21T17:18:30.138Z,2.13
2023-05-21T17:20:57.607Z,1.92
2023-05-21T17:23:24.790Z,2.22
2023-05-21T17:25:52.052Z,2.10
2023-05-21T17:28:20.969Z,2.04
2023-05-21T17:30:49.669Z,2.24
2023-05-21T17:33:17.149Z,2.24
2023-05-21T17:35:44.368Z,2.07
2023-05-21T17:38:11.506Z,2.21
2023-05-21T17:40:38.832Z,2.03
2023-05-21T17:43:06.034Z,2.06
2023-05-21T17:45:34.727Z,2.08
2023-05-21T17:48:02.038Z,2.27
2023-05-21T17:50:29.207Z,2.08
2023-05-21T17:52:56.364Z,2.36
2023-05-21T17:55:23.767Z,2.20
2023-05-21T17:57:51.485Z,2.25
2023-05-21T18:00:19.724Z,2.03
2023-05-21T18:02:48.334Z,2.17
2023-05-21T18:05:15.609Z,2.15
2023-05-21T18:07:42.722Z,2.20
2023-05-21T18:10:10.387Z,2.14
2023-05-21T18:12:37.582Z,1.99
2023-05-21T18:15:05.741Z,2.13
2023-05-21T18:17:32.938Z,2.32
2023-05-21T18:20:01.474Z,2.20
2023-05-21T18:22:28.658Z,2.07
2023-05-21T18:24:55.912Z,2.15
2023-05-21T18:27:23.088Z,2.23
2023-05-21T18:29:50.261Z,2.25
2023-05-21T18:32:17.705Z,2.37
2023-05-21T18:34:45.123Z,1.88
2023-05-21T18:37:13.682Z,1.73
2023-05-21T18:39:40.827Z,1.91
2023-05-21T18:42:13.592Z,1.87
2023-05-21T18:44:41.415Z,1.85
2023-05-21T18:47:08.680Z,2.08
2023-05-21T18:49:36.348Z,2.23
2023-05-21T18:52:04.390Z,2.17
2023-05-21T18:54:33.018Z,2.16
2023-05-21T18:57:00.644Z,1.90
2023-05-21T18:59:29.218Z,2.43
2023-05-21T19:01:56.440Z,2.55
2023-05-21T19:04:23.625Z,2.26
2023-05-21T19:06:50.767Z,2.20
2023-05-21T19:09:17.882Z,2.53
2023-05-21T19:11:46.546Z,2.95
2023-05-21T19:14:13.908Z,2.70
2023-05-21T19:16:41.295Z,2.37
2023-05-21T19:19:08.609Z,2.17
2023-05-21T19:21:36.200Z,2.30
2023-05-21T19:24:05.836Z,2.20
2023-05-21T19:26:33.643Z,2.33
2023-05-21T19:29:02.403Z,2.54
2023-05-21T19:31:29.660Z,2.45
2023-05-21T19:33:56.812Z,2.37
2023-05-21T19:36:25.041Z,1.92
2023-05-21T19:38:52.389Z,1.86
2023-05-21T19:41:20.428Z,1.64
2023-05-21T19:43:47.542Z,1.55
2023-05-21T19:46:19.805Z,1.70
2023-05-21T19:48:47.994Z,1.73
2023-05-21T19:51:16.017Z,1.57
2023-05-21T19:53:43.133Z,1.39
2023-05-21T19:56:10.388Z,1.61
2023-05-21T19:58:37.608Z,1.74
2023-05-21T20:01:05.288Z,1.80
2023-05-21T20:03:34.105Z,1.65
2023-05-21T20:06:01.926Z,1.69
2023-05-21T20:08:29.255Z,1.72
2023-05-21T20:10:56.698Z,1.73
2023-05-21T20:13:24.031Z,1.57
2023-05-21T20:15:51.479Z,1.69
2023-05-21T20:18:18.756Z,1.66
2023-05-21T20:20:48.095Z,1.69
2023-05-21T20:23:15.353Z,1.99
2023-05-21T20:25:42.570Z,1.82
2023-05-21T20:28:09.829Z,1.76
2023-05-21T20:30:53.983Z,2.02
2023-05-21T20:33:21.227Z,2.18
2023-05-21T20:35:50.049Z,1.88
2023-05-21T20:38:17.358Z,1.89
2023-05-21T20:40:44.906Z,1.84
2023-05-21T20:43:12.167Z,2.07
2023-05-21T20:45:39.807Z,2.24
2023-05-21T20:48:08.246Z,1.87
2023-05-21T20:50:35.575Z,1.96
2023-05-21T20:53:04.503Z,1.92
2023-05-21T20:55:31.744Z,2.02
2023-05-21T20:57:58.869Z,2.10
2023-05-21T21:00:26.250Z,2.30
2023-05-21T21:02:53.566Z,2.01
2023-05-21T21:05:20.866Z,1.96
2023-05-21T21:07:48.017Z,2.01
2023-05-21T21:10:17.106Z,1.73
2023-05-21T21:12:44.402Z,1.78
2023-05-21T21:15:12.068Z,1.63
2023-05-21T21:17:39.655Z,1.53
2023-05-21T21:20:08.526Z,1.59
2023-05-21T21:22:35.863Z,1.45
2023-05-21T21:25:03.050Z,2.04
2023-05-21T21:27:31.686Z,1.64
2023-05-21T21:29:58.807Z,1.48
2023-05-21T21:32:26.606Z,1.43
2023-05-21T21:34:53.764Z,1.45
2023-05-21T21:37:21.047Z,1.38
2023-05-21T21:39:48.229Z,1.24
2023-05-21T21:42:15.636Z,1.30
2023-05-21T21:44:44.393Z,1.22
2023-05-21T21:47:12.010Z,1.30
2023-05-21T21:49:39.219Z,1.23
2023-05-21T21:52:06.938Z,1.07
2023-05-21T21:54:34.348Z,1.21
2023-05-21T21:57:01.566Z,1.14
2023-05-21T21:59:28.730Z,1.10
2023-05-21T22:01:57.490Z,1.17
2023-05-21T22:04:24.711Z,1.04
2023-05-21T22:06:51.927Z,1.18
2023-05-21T22:09:19.452Z,1.28
2023-05-21T22:11:46.730Z,1.14
2023-05-21T22:14:14.057Z,1.00
2023-05-21T22:16:41.214Z,0.94
2023-05-21T22:19:10.081Z,1.06
2023-05-21T22:21:37.594Z,1.02
2023-05-21T22:24:05.074Z,0.95
2023-05-21T22:26:32.209Z,0.80
2023-05-21T22:28:59.423Z,1.06
2023-05-21T22:31:27.133Z,1.02
2023-05-21T22:33:54.212Z,0.91
2023-05-21T22:36:22.811Z,0.92
2023-05-21T22:38:50.071Z,0.98
2023-05-21T22:41:17.670Z,0.76
2023-05-21T22:43:44.897Z,1.03
2023-05-21T22:46:12.191Z,1.19
2023-05-21T22:48:39.353Z,1.14
2023-05-21T22:51:06.793Z,1.06
2023-05-21T22:53:35.519Z,1.22
2023-05-21T22:56:02.697Z,1.65
2023-05-21T22:58:29.833Z,1.68
2023-05-21T23:00:57.517Z,1.54
2023-05-21T23:03:24.833Z,1.32
2023-05-21T23:05:52.007Z,1.18
2023-05-21T23:08:19.451Z,1.31
2023-05-21T23:10:48.015Z,1.39
2023-05-21T23:13:15.146Z,1.27
2023-05-21T23:15:42.311Z,1.17
2023-05-21T23:18:09.510Z,1.30
2023-05-21T23:20:36.988Z,1.24
2023-05-21T23:23:04.512Z,1.49
2023-05-21T23:25:31.679Z,1.71
2023-05-21T23:28:00.306Z,1.76
2023-05-21T23:30:27.392Z,1.58
2023-05-21T23:32:54.545Z,1.63
2023-05-21T23:35:21.843Z,1.87
2023-05-21T23:37:49.046Z,2.00
2023-05-21T23:40:16.334Z,1.90
2023-05-21T23:42:43.950Z,1.99
2023-05-21T23:45:12.764Z,1.81
2023-05-21T23:47:40.079Z,1.62
2023-05-21T23:50:08.849Z,1.62
2023-05-21T23:52:36.053Z,1.93
2023-05-21T23:55:03.132Z,1.14
2023-05-21T23:57:30.310Z,1.39
2023-05-21T23:59:57.455Z,1.47
